Time;durP1;ratioP1;P1;durP2;ratioP2;P2;SDS_P1;SDS_P2;PMS_P1;PMS_P2;Temp;Humidity;BMP_temperature;BMP_pressure;BME280_temperature;BME280_humidity;BME280_pressure;Samples;Min_cycle;Max_cycle;Signal;HPM_P1;HPM_P2
2023/04/06 00:00:12;;;;;;;;;;;;;;;;;;1033398;28;2642;-57
2023/04/06 00:01:03;;;;;;;;;;;;;;;;;;1032024;28;4083;-57
2023/04/06 00:01:34;;;;;;;;;;;;;;;;;;1031703;28;3987;-58
2023/04/06 00:02:04;;;;;;;;;;;;;;;;;;1031030;28;3153;-59
2023/04/06 00:02:35;;;;;;;;;;;;;;;;;;1032003;28;4124;-58
2023/04/06 00:03:06;;;;;;;;;;;;;;;;;;1031209;28;2255;-55
2023/04/06 00:03:37;;;;;;;;;;;;;;;;;;1033213;28;4347;-59
2023/04/06 00:04:07;;;;;;;;;;;;;;;;;;1033397;28;2455;-55
2023/04/06 00:04:37;;;;;;;;;;;;;;;;;;1032632;28;3873;-56
2023/04/06 00:05:07;;;;;;;;;;;;;;;;;;1033126;28;2412;-56
2023/04/06 00:05:38;;;;;;;;;;;;;;;;;;1032872;28;4215;-57
2023/04/06 00:06:08;;;;;;;;;;;;;;;;;;1032944;28;2908;-58
2023/04/06 00:06:38;;;;;;;;;;;;;;;;;;1034838;28;3986;-56
2023/04/06 00:07:09;;;;;;;;;;;;;;;;;;1036211;28;3023;-58
2023/04/06 00:07:39;;;;;;;;;;;;;;;;;;1036489;28;4070;-59
2023/04/06 00:08:10;;;;;;;;;;;;;;;;;;1036972;28;4047;-57
2023/04/06 00:08:41;;;;;;;;;;;;;;;;;;1038188;28;4060;-55
2023/04/06 00:09:11;;;;;;;;;;;;;;;;;;1035934;28;3061;-54
2023/04/06 00:09:41;;;;;;;;;;;;;;;;;;1038305;28;4046;-54
2023/04/06 00:10:12;;;;;;;;;;;;;;;;;;1034457;28;2489;-57
2023/04/06 00:10:42;;;;;;;;;;;;;;;;;;1032637;28;3949;-57
2023/04/06 00:11:12;;;;;;;;;;;;;;;;;;1037612;28;2861;-58
2023/04/06 00:11:42;;;;;;;;;;;;;;;;;;1038058;28;3834;-58
2023/04/06 00:12:13;;;;;;;;;;;;;;;;;;1038412;28;3052;-60
2023/04/06 00:12:43;;;;;;;;;;;;;;;;;;1037742;28;3983;-55
2023/04/06 00:13:13;;;;;;;;;;;;;;;;;;1037427;28;2848;-53
2023/04/06 00:13:44;;;;;;;;;;;;;;;;;;1038271;28;3856;-57
2023/04/06 00:14:17;;;;;;;;;;;;;;;;;;1038433;28;2176;-57
2023/04/06 00:14:47;;;;;;;;;;;;;;;;;;1038540;28;4382;-57
2023/04/06 00:15:17;;;;;;;;;;;;;;;;;;1033758;28;2798;-57
2023/04/06 00:15:48;;;;;;;;;;;;;;;;;;1035901;28;3980;-55
2023/04/06 00:16:18;;;;;;;;;;;;;;;;;;1035599;28;2766;-58
2023/04/06 00:16:48;;;;;;;;;;;;;;;;;;1037273;28;3969;-57
2023/04/06 00:17:18;;;;;;;;;;;;;;;;;;1036997;28;2817;-53
2023/04/06 00:17:49;;;;;;;;;;;;;;;;;;1035377;28;3790;-57
2023/04/06 00:18:19;;;;;;;;;;;;;;;;;;1035688;28;2925;-54
2023/04/06 00:18:49;;;;;;;;;;;;;;;;;;1037812;28;3862;-57
2023/04/06 00:19:20;;;;;;;;;;;;;;;;;;1036646;28;2852;-58
2023/04/06 00:19:50;;;;;;;;;;;;;;;;;;1039334;28;3817;-57
2023/04/06 00:20:21;;;;;;;;;;;;;;;;;;1036812;28;3457;-60
2023/04/06 00:20:51;;;;;;;;;;;;;;;;;;1036767;28;4051;-57
2023/04/06 00:21:21;;;;;;;;;;;;;;;;;;1037372;28;1956;-60
2023/04/06 00:21:52;;;;;;;;;;;;;;;;;;1038280;28;4294;-60
2023/04/06 00:22:22;;;;;;;;;;;;;;;;;;1038460;28;2989;-61
2023/04/06 00:22:53;;;;;;;;;;;;;;;;;;1037112;28;4004;-58
2023/04/06 00:23:24;;;;;;;;;;;;;;;;;;1036632;28;3843;-55
2023/04/06 00:23:54;;;;;;;;;;;;;;;;;;1037857;28;2664;-58
2023/04/06 00:24:25;;;;;;;;;;;;;;;;;;1038675;28;4401;-57
2023/04/06 00:24:55;;;;;;;;;;;;;;;;;;1037935;28;2304;-58
2023/04/06 00:25:26;;;;;;;;;;;;;;;;;;1037304;28;3983;-58
2023/04/06 00:25:56;;;;;;;;;;;;;;;;;;1037130;28;2936;-53
2023/04/06 00:26:26;;;;;;;;;;;;;;;;;;1038741;28;4255;-54
2023/04/06 00:26:57;;;;;;;;;;;;;;;;;;1036582;28;2636;-55
2023/04/06 00:27:27;;;;;;;;;;;;;;;;;;1036989;28;3948;-59
2023/04/06 00:27:57;;;;;;;;;;;;;;;;;;1034844;28;2908;-57
2023/04/06 00:28:29;;;;;;;;;;;;;;;;;;1034947;28;4123;-56
2023/04/06 00:29:00;;;;;;;;;;;;;;;;;;1035710;28;1811;-56
2023/04/06 00:29:30;;;;;;;;;;;;;;;;;;1033944;28;4121;-57
2023/04/06 00:30:00;;;;;;;;;;;;;;;;;;1037298;28;2115;-56
2023/04/06 00:30:30;;;;;;;;;;;;;;;;;;1036898;28;4460;-56
2023/04/06 00:31:01;;;;;;;;;;;;;;;;;;1033502;28;2930;-57
2023/04/06 00:31:31;;;;;;;;;;;;;;;;;;1036698;28;3849;-55
2023/04/06 00:32:01;;;;;;;;;;;;;;;;;;1038168;28;3000;-57
2023/04/06 00:32:32;;;;;;;;;;;;;;;;;;1035852;28;3950;-59
2023/04/06 00:33:02;;;;;;;;;;;;;;;;;;1034789;28;3088;-56
2023/04/06 00:33:32;;;;;;;;;;;;;;;;;;1035977;28;4021;-58
2023/04/06 00:34:03;;;;;;;;;;;;;;;;;;1038390;28;2807;-57
2023/04/06 00:34:33;;;;;;;;;;;;;;;;;;1037095;28;4234;-59
2023/04/06 00:35:04;;;;;;;;;;;;;;;;;;1039769;28;1676;-60
2023/04/06 00:35:34;;;;;;;;;;;;;;;;;;1037709;28;4102;-56
2023/04/06 00:36:05;;;;;;;;;;;;;;;;;;1038628;28;1847;-56
2023/04/06 00:36:35;;;;;;;;;;;;;;;;;;1036650;28;3795;-58
2023/04/06 00:37:06;;;;;;;;;;;;;;;;;;1037667;28;2990;-56
2023/04/06 00:37:36;;;;;;;;;;;;;;;;;;1037663;28;3902;-56
2023/04/06 00:38:06;;;;;;;;;;;;;;;;;;1038200;28;2944;-58
2023/04/06 00:38:37;;;;;;;;;;;;;;;;;;1035974;28;4112;-60
2023/04/06 00:39:07;;;;;;;;;;;;;;;;;;1037944;28;2751;-55
2023/04/06 00:39:37;;;;;;;;;;;;;;;;;;1035397;28;4026;-56
2023/04/06 00:40:08;;;;;;;;;;;;;;;;;;1037138;28;3546;-58
2023/04/06 00:40:39;;;;;;;;;;;;;;;;;;1038155;28;4118;-59
2023/04/06 00:41:09;;;;;;;;;;;;;;;;;;1036283;28;2812;-54
2023/04/06 00:41:44;;;;;;;;;;;;;;;;;;1037872;28;4023;-58
2023/04/06 00:42:15;;;;;;;;;;;;;;;;;;1037417;28;2893;-58
2023/04/06 00:42:45;;;;;;;;;;;;;;;;;;1037185;28;4196;-53
2023/04/06 00:43:15;;;;;;;;;;;;;;;;;;1036952;28;2851;-56
2023/04/06 00:43:46;;;;;;;;;;;;;;;;;;1038422;28;3942;-53
2023/04/06 00:44:16;;;;;;;;;;;;;;;;;;1036894;28;1737;-59
2023/04/06 00:44:46;;;;;;;;;;;;;;;;;;1036900;28;4077;-58
2023/04/06 00:45:17;;;;;;;;;;;;;;;;;;1036569;28;2544;-57
2023/04/06 00:45:47;;;;;;;;;;;;;;;;;;1035622;28;3985;-59
2023/04/06 00:46:17;;;;;;;;;;;;;;;;;;1039079;28;1615;-58
2023/04/06 00:46:47;;;;;;;;;;;;;;;;;;1038465;28;4164;-52
2023/04/06 00:47:18;;;;;;;;;;;;;;;;;;1036977;28;2926;-58
2023/04/06 00:47:48;;;;;;;;;;;;;;;;;;1035691;28;4156;-56
2023/04/06 00:48:18;;;;;;;;;;;;;;;;;;1037678;28;2891;-58
2023/04/06 00:48:49;;;;;;;;;;;;;;;;;;1038300;28;3982;-59
2023/04/06 00:49:19;;;;;;;;;;;;;;;;;;1038120;28;1693;-58
2023/04/06 00:49:49;;;;;;;;;;;;;;;;;;1038688;28;3975;-53
2023/04/06 00:50:20;;;;;;;;;;;;;;;;;;1038371;28;2185;-58
2023/04/06 00:50:50;;;;;;;;;;;;;;;;;;1037552;28;3990;-61
2023/04/06 00:51:21;;;;;;;;;;;;;;;;;;1037431;28;2919;-58
2023/04/06 00:51:52;;;;;;;;;;;;;;;;;;1038727;28;4001;-57
2023/04/06 00:52:22;;;;;;;;;;;;;;;;;;1036896;28;2400;-54
2023/04/06 00:52:53;;;;;;;;;;;;;;;;;;1036882;28;4016;-57
2023/04/06 00:53:23;;;;;;;;;;;;;;;;;;1037238;28;2875;-56
2023/04/06 00:53:54;;;;;;;;;;;;;;;;;;1037641;28;3814;-57
2023/04/06 00:54:24;;;;;;;;;;;;;;;;;;1037933;28;3895;-58
2023/04/06 00:54:55;;;;;;;;;;;;;;;;;;1035943;28;2880;-59
2023/04/06 00:55:28;;;;;;;;;;;;;;;;;;1037834;28;4173;-60
2023/04/06 00:55:58;;;;;;;;;;;;;;;;;;1038149;28;1946;-57
2023/04/06 00:56:29;;;;;;;;;;;;;;;;;;1038126;28;3938;-60
2023/04/06 00:56:59;;;;;;;;;;;;;;;;;;1036775;28;2977;-56
2023/04/06 00:57:30;;;;;;;;;;;;;;;;;;1036212;28;4070;-58
2023/04/06 00:58:01;;;;;;;;;;;;;;;;;;1036878;28;2879;-53
2023/04/06 00:58:32;;;;;;;;;;;;;;;;;;1036902;28;3907;-59
2023/04/06 00:59:02;;;;;;;;;;;;;;;;;;1038009;28;2329;-60
2023/04/06 00:59:33;;;;;;;;;;;;;;;;;;1036274;28;3879;-57
2023/04/06 01:00:03;;;;;;;;;;;;;;;;;;1036723;28;2001;-57
2023/04/06 01:00:34;;;;;;;;;;;;;;;;;;1036036;28;3791;-59
2023/04/06 01:01:05;;;;;;;;;;;;;;;;;;1037691;28;2833;-56
2023/04/06 01:01:35;;;;;;;;;;;;;;;;;;1038603;28;3951;-59
2023/04/06 01:02:06;;;;;;;;;;;;;;;;;;1038005;28;2378;-59
2023/04/06 01:02:36;;;;;;;;;;;;;;;;;;1036730;28;3997;-57
2023/04/06 01:03:07;;;;;;;;;;;;;;;;;;1035855;28;2743;-60
2023/04/06 01:03:38;;;;;;;;;;;;;;;;;;1037036;28;3811;-55
2023/04/06 01:04:08;;;;;;;;;;;;;;;;;;1037704;28;3351;-55
2023/04/06 01:04:39;;;;;;;;;;;;;;;;;;1034886;28;3986;-59
2023/04/06 01:05:09;;;;;;;;;;;;;;;;;;1038426;28;1964;-56
2023/04/06 01:05:40;;;;;;;;;;;;;;;;;;1034579;28;3887;-56
2023/04/06 01:06:10;;;;;;;;;;;;;;;;;;1036942;28;2821;-61
2023/04/06 01:06:41;;;;;;;;;;;;;;;;;;1035135;28;4332;-53
2023/04/06 01:07:11;;;;;;;;;;;;;;;;;;1037009;28;2694;-55
2023/04/06 01:07:41;;;;;;;;;;;;;;;;;;1038701;28;4053;-58
2023/04/06 01:08:11;;;;;;;;;;;;;;;;;;1034672;28;2981;-56
2023/04/06 01:08:42;;;;;;;;;;;;;;;;;;1034681;28;3893;-60
2023/04/06 01:09:12;;;;;;;;;;;;;;;;;;1033396;28;3137;-59
2023/04/06 01:09:42;;;;;;;;;;;;;;;;;;1036766;28;4085;-59
2023/04/06 01:10:22;;;;;;;;;;;;;;;;;;1036495;28;2695;-56
2023/04/06 01:10:52;;;;;;;;;;;;;;;;;;1037232;28;3907;-58
2023/04/06 01:11:22;;;;;;;;;;;;;;;;;;1035439;28;2902;-59
2023/04/06 01:11:53;;;;;;;;;;;;;;;;;;1037700;28;3992;-59
2023/04/06 01:12:24;;;;;;;;;;;;;;;;;;1037865;28;1916;-54
2023/04/06 01:12:54;;;;;;;;;;;;;;;;;;1034957;28;3589;-59
2023/04/06 01:13:24;;;;;;;;;;;;;;;;;;1031594;28;3995;-58
2023/04/06 01:13:55;;;;;;;;;;;;;;;;;;1039061;28;1804;-57
2023/04/06 01:14:25;;;;;;;;;;;;;;;;;;1036769;28;4210;-55
2023/04/06 01:14:55;;;;;;;;;;;;;;;;;;1037720;28;2713;-57
2023/04/06 01:15:26;;;;;;;;;;;;;;;;;;1034772;28;4032;-60
2023/04/06 01:15:57;;;;;;;;;;;;;;;;;;1037595;28;2908;-56
2023/04/06 01:16:27;;;;;;;;;;;;;;;;;;1039109;28;4139;-55
2023/04/06 01:16:59;;;;;;;;;;;;;;;;;;1038651;28;1754;-59
2023/04/06 01:17:30;;;;;;;;;;;;;;;;;;1039497;28;4048;-56
2023/04/06 01:18:00;;;;;;;;;;;;;;;;;;1037793;28;2881;-60
2023/04/06 01:18:30;;;;;;;;;;;;;;;;;;1037603;28;4094;-56
2023/04/06 01:19:01;;;;;;;;;;;;;;;;;;1037628;28;2918;-57
2023/04/06 01:19:31;;;;;;;;;;;;;;;;;;1036513;28;4982;-57
2023/04/06 01:20:02;;;;;;;;;;;;;;;;;;1036104;28;2898;-60
2023/04/06 01:20:32;;;;;;;;;;;;;;;;;;1040923;28;3877;-59
2023/04/06 01:21:02;;;;;;;;;;;;;;;;;;1038437;28;2917;-57
2023/04/06 01:21:33;;;;;;;;;;;;;;;;;;1038642;28;4033;-55
2023/04/06 01:22:03;;;;;;;;;;;;;;;;;;1036341;28;2755;-58
2023/04/06 01:22:33;;;;;;;;;;;;;;;;;;1037233;28;3883;-57
2023/04/06 01:23:04;;;;;;;;;;;;;;;;;;1037810;28;2411;-57
2023/04/06 01:23:35;;;;;;;;;;;;;;;;;;1036004;28;3789;-57
2023/04/06 01:24:05;;;;;;;;;;;;;;;;;;1037421;28;2750;-59
2023/04/06 01:24:36;;;;;;;;;;;;;;;;;;1036295;28;4036;-59
2023/04/06 01:25:06;;;;;;;;;;;;;;;;;;1035855;28;2784;-55
2023/04/06 01:25:36;;;;;;;;;;;;;;;;;;1037467;28;3855;-58
2023/04/06 01:26:07;;;;;;;;;;;;;;;;;;1036906;28;2881;-55
2023/04/06 01:26:38;;;;;;;;;;;;;;;;;;1037304;28;3962;-57
2023/04/06 01:27:08;;;;;;;;;;;;;;;;;;1036647;28;2816;-59
2023/04/06 01:27:39;;;;;;;;;;;;;;;;;;1037640;28;3941;-61
2023/04/06 01:28:09;;;;;;;;;;;;;;;;;;1036026;28;2859;-57
2023/04/06 01:28:39;;;;;;;;;;;;;;;;;;1038710;28;4099;-57
2023/04/06 01:29:10;;;;;;;;;;;;;;;;;;1037720;28;3280;-53
2023/04/06 01:29:41;;;;;;;;;;;;;;;;;;1037155;28;4034;-56
2023/04/06 01:30:11;;;;;;;;;;;;;;;;;;1036137;28;2940;-58
2023/04/06 01:30:42;;;;;;;;;;;;;;;;;;1036403;28;4022;-56
2023/04/06 01:31:12;;;;;;;;;;;;;;;;;;1037731;28;2816;-56
2023/04/06 01:31:42;;;;;;;;;;;;;;;;;;1039136;28;3920;-60
2023/04/06 01:32:13;;;;;;;;;;;;;;;;;;1040099;28;1578;-54
2023/04/06 01:32:43;;;;;;;;;;;;;;;;;;1035826;28;3980;-58
2023/04/06 01:33:13;;;;;;;;;;;;;;;;;;1040024;28;1753;-57
2023/04/06 01:33:45;;;;;;;;;;;;;;;;;;1037677;28;4030;-55
2023/04/06 01:34:15;;;;;;;;;;;;;;;;;;1038941;28;1684;-58
2023/04/06 01:34:46;;;;;;;;;;;;;;;;;;1037139;28;3896;-59
2023/04/06 01:35:17;;;;;;;;;;;;;;;;;;1038499;28;2365;-59
2023/04/06 01:35:47;;;;;;;;;;;;;;;;;;1036088;28;3888;-59
2023/04/06 01:36:18;;;;;;;;;;;;;;;;;;1034143;28;2188;-60
2023/04/06 01:36:48;;;;;;;;;;;;;;;;;;1034247;28;4020;-56
2023/04/06 01:37:18;;;;;;;;;;;;;;;;;;1035532;28;2012;-59
2023/04/06 01:37:49;;;;;;;;;;;;;;;;;;1033945;28;4177;-59
2023/04/06 01:38:20;;;;;;;;;;;;;;;;;;1035142;28;2237;-55
2023/04/06 01:38:50;;;;;;;;;;;;;;;;;;1035056;28;3951;-58
2023/04/06 01:39:21;;;;;;;;;;;;;;;;;;1033396;28;2903;-58
2023/04/06 01:39:51;;;;;;;;;;;;;;;;;;1032743;28;4063;-60
2023/04/06 01:40:21;;;;;;;;;;;;;;;;;;1034341;28;2199;-59
2023/04/06 01:40:52;;;;;;;;;;;;;;;;;;1034100;28;4373;-59
2023/04/06 01:41:23;;;;;;;;;;;;;;;;;;1035199;28;1822;-53
2023/04/06 01:41:53;;;;;;;;;;;;;;;;;;1039777;28;4065;-57
2023/04/06 01:42:23;;;;;;;;;;;;;;;;;;1037699;28;1951;-60
2023/04/06 01:42:53;;;;;;;;;;;;;;;;;;1038209;28;3629;-58
2023/04/06 01:43:24;;;;;;;;;;;;;;;;;;1038628;28;4085;-60
2023/04/06 01:43:54;;;;;;;;;;;;;;;;;;1037944;28;1925;-57
2023/04/06 01:44:25;;;;;;;;;;;;;;;;;;1036359;28;4080;-58
2023/04/06 01:44:55;;;;;;;;;;;;;;;;;;1038866;28;1738;-56
2023/04/06 01:45:25;;;;;;;;;;;;;;;;;;1037551;28;4199;-60
2023/04/06 01:45:56;;;;;;;;;;;;;;;;;;1037147;28;2885;-57
2023/04/06 01:46:26;;;;;;;;;;;;;;;;;;1037022;28;3917;-58
2023/04/06 01:46:56;;;;;;;;;;;;;;;;;;1039434;28;1836;-56
2023/04/06 01:47:27;;;;;;;;;;;;;;;;;;1039481;28;3798;-59
2023/04/06 01:47:57;;;;;;;;;;;;;;;;;;1036761;28;2825;-59
2023/04/06 01:48:27;;;;;;;;;;;;;;;;;;1037189;28;4043;-60
2023/04/06 01:48:58;;;;;;;;;;;;;;;;;;1039307;28;1652;-55
2023/04/06 01:49:28;;;;;;;;;;;;;;;;;;1037482;28;3917;-58
2023/04/06 01:49:58;;;;;;;;;;;;;;;;;;1039373;28;1758;-58
2023/04/06 01:50:28;;;;;;;;;;;;;;;;;;1036899;28;4074;-55
2023/04/06 01:50:59;;;;;;;;;;;;;;;;;;1040167;28;1703;-56
2023/04/06 01:51:29;;;;;;;;;;;;;;;;;;1039474;28;3899;-55
2023/04/06 01:52:00;;;;;;;;;;;;;;;;;;1039621;28;1848;-56
2023/04/06 01:52:30;;;;;;;;;;;;;;;;;;1038192;28;4193;-59
2023/04/06 01:53:00;;;;;;;;;;;;;;;;;;1039339;28;2939;-56
2023/04/06 01:53:31;;;;;;;;;;;;;;;;;;1038387;28;3971;-58
2023/04/06 01:54:01;;;;;;;;;;;;;;;;;;1039758;28;1732;-58
2023/04/06 01:54:31;;;;;;;;;;;;;;;;;;1038659;28;3820;-55
2023/04/06 01:55:02;;;;;;;;;;;;;;;;;;1036918;28;2444;-59
2023/04/06 01:55:32;;;;;;;;;;;;;;;;;;1037727;28;3973;-58
2023/04/06 01:56:02;;;;;;;;;;;;;;;;;;1038772;28;1626;-56
2023/04/06 01:56:33;;;;;;;;;;;;;;;;;;1038296;28;3945;-55
2023/04/06 01:57:03;;;;;;;;;;;;;;;;;;1039767;28;1580;-61
2023/04/06 01:57:34;;;;;;;;;;;;;;;;;;1037176;28;3802;-55
2023/04/06 01:58:05;;;;;;;;;;;;;;;;;;1039107;28;2362;-56
2023/04/06 01:58:35;;;;;;;;;;;;;;;;;;1037270;28;4086;-57
2023/04/06 01:59:05;;;;;;;;;;;;;;;;;;1036170;28;3041;-57
2023/04/06 01:59:36;;;;;;;;;;;;;;;;;;1037939;28;4050;-58
2023/04/06 02:00:06;;;;;;;;;;;;;;;;;;1035605;28;2810;-58
2023/04/06 02:00:37;;;;;;;;;;;;;;;;;;1037981;28;4021;-57
2023/04/06 02:01:07;;;;;;;;;;;;;;;;;;1036445;28;2888;-55
2023/04/06 02:01:37;;;;;;;;;;;;;;;;;;1039395;28;4038;-58
2023/04/06 02:02:08;;;;;;;;;;;;;;;;;;1037404;28;3168;-54
2023/04/06 02:02:38;;;;;;;;;;;;;;;;;;1037672;28;4041;-57
2023/04/06 02:03:08;;;;;;;;;;;;;;;;;;1039290;28;1950;-55
2023/04/06 02:03:38;;;;;;;;;;;;;;;;;;1039412;28;4036;-56
2023/04/06 02:04:09;;;;;;;;;;;;;;;;;;1038742;28;2889;-59
2023/04/06 02:04:39;;;;;;;;;;;;;;;;;;1039636;28;4109;-55
2023/04/06 02:05:10;;;;;;;;;;;;;;;;;;1038521;28;2685;-55
2023/04/06 02:05:40;;;;;;;;;;;;;;;;;;1038224;28;4479;-54
2023/04/06 02:06:10;;;;;;;;;;;;;;;;;;1038794;28;2916;-58
2023/04/06 02:06:40;;;;;;;;;;;;;;;;;;1037031;28;3810;-56
2023/04/06 02:07:11;;;;;;;;;;;;;;;;;;1038773;28;1694;-54
2023/04/06 02:07:41;;;;;;;;;;;;;;;;;;1037819;28;3820;-58
2023/04/06 02:08:11;;;;;;;;;;;;;;;;;;1038758;28;1771;-58
2023/04/06 02:08:42;;;;;;;;;;;;;;;;;;1038374;28;3935;-59
2023/04/06 02:09:12;;;;;;;;;;;;;;;;;;1039756;28;1684;-58
2023/04/06 02:09:42;;;;;;;;;;;;;;;;;;1036687;28;3886;-58
2023/04/06 02:10:13;;;;;;;;;;;;;;;;;;1039110;28;1659;-56
2023/04/06 02:10:44;;;;;;;;;;;;;;;;;;1038438;28;4038;-54
2023/04/06 02:11:14;;;;;;;;;;;;;;;;;;1039175;28;1672;-60
2023/04/06 02:11:45;;;;;;;;;;;;;;;;;;1038300;28;3878;-57
2023/04/06 02:12:15;;;;;;;;;;;;;;;;;;1037380;28;2907;-59
2023/04/06 02:12:45;;;;;;;;;;;;;;;;;;1036141;28;4036;-55
2023/04/06 02:13:16;;;;;;;;;;;;;;;;;;1039313;28;1989;-55
2023/04/06 02:13:46;;;;;;;;;;;;;;;;;;1039352;28;4025;-59
2023/04/06 02:14:16;;;;;;;;;;;;;;;;;;1037819;28;2603;-56
2023/04/06 02:14:47;;;;;;;;;;;;;;;;;;1037772;28;4066;-57
2023/04/06 02:15:17;;;;;;;;;;;;;;;;;;1038250;28;2054;-57
2023/04/06 02:15:47;;;;;;;;;;;;;;;;;;1039090;28;3889;-56
2023/04/06 02:16:17;;;;;;;;;;;;;;;;;;1036545;28;2772;-57
2023/04/06 02:16:48;;;;;;;;;;;;;;;;;;1035134;28;4085;-56
2023/04/06 02:17:18;;;;;;;;;;;;;;;;;;1035118;28;2819;-56
2023/04/06 02:17:48;;;;;;;;;;;;;;;;;;1038959;28;3841;-57
2023/04/06 02:18:19;;;;;;;;;;;;;;;;;;1036521;28;2946;-59
2023/04/06 02:18:50;;;;;;;;;;;;;;;;;;1037991;28;3998;-58
2023/04/06 02:19:20;;;;;;;;;;;;;;;;;;1038764;28;1628;-60
2023/04/06 02:19:51;;;;;;;;;;;;;;;;;;1037967;28;4083;-54
2023/04/06 02:20:21;;;;;;;;;;;;;;;;;;1037649;28;2527;-58
2023/04/06 02:20:51;;;;;;;;;;;;;;;;;;1039497;28;4229;-56
2023/04/06 02:21:22;;;;;;;;;;;;;;;;;;1038276;28;2602;-57
2023/04/06 02:21:52;;;;;;;;;;;;;;;;;;1037402;28;4312;-55
2023/04/06 02:22:22;;;;;;;;;;;;;;;;;;1039627;28;1574;-57
2023/04/06 02:22:53;;;;;;;;;;;;;;;;;;1038830;28;3796;-55
2023/04/06 02:23:23;;;;;;;;;;;;;;;;;;1038339;28;2766;-57
2023/04/06 02:23:53;;;;;;;;;;;;;;;;;;1038179;28;3753;-58
2023/04/06 02:24:24;;;;;;;;;;;;;;;;;;1037586;28;4101;-58
2023/04/06 02:24:54;;;;;;;;;;;;;;;;;;1037018;28;2206;-60
2023/04/06 02:25:25;;;;;;;;;;;;;;;;;;1039529;28;4058;-56
2023/04/06 02:25:55;;;;;;;;;;;;;;;;;;1038902;28;1729;-57
2023/04/06 02:26:25;;;;;;;;;;;;;;;;;;1035920;28;4080;-54
2023/04/06 02:26:55;;;;;;;;;;;;;;;;;;1037061;28;2172;-60
2023/04/06 02:27:26;;;;;;;;;;;;;;;;;;1035543;28;4210;-59
2023/04/06 02:27:56;;;;;;;;;;;;;;;;;;1038728;28;3079;-56
2023/04/06 02:28:26;;;;;;;;;;;;;;;;;;1036830;28;3918;-58
2023/04/06 02:28:57;;;;;;;;;;;;;;;;;;1037395;28;2857;-56
2023/04/06 02:29:27;;;;;;;;;;;;;;;;;;1038202;28;3879;-58
2023/04/06 02:29:57;;;;;;;;;;;;;;;;;;1039322;28;1608;-59
2023/04/06 02:30:28;;;;;;;;;;;;;;;;;;1037665;28;4061;-57
2023/04/06 02:30:59;;;;;;;;;;;;;;;;;;1038284;28;2326;-55
2023/04/06 02:31:29;;;;;;;;;;;;;;;;;;1038187;28;3923;-55
2023/04/06 02:32:00;;;;;;;;;;;;;;;;;;1037628;28;2795;-57
2023/04/06 02:32:30;;;;;;;;;;;;;;;;;;1037044;28;4112;-57
2023/04/06 02:33:00;;;;;;;;;;;;;;;;;;1038395;28;2627;-57
2023/04/06 02:33:31;;;;;;;;;;;;;;;;;;1035832;28;4070;-58
2023/04/06 02:34:01;;;;;;;;;;;;;;;;;;1038732;28;2688;-59
2023/04/06 02:34:31;;;;;;;;;;;;;;;;;;1037985;28;3862;-56
2023/04/06 02:35:02;;;;;;;;;;;;;;;;;;1036915;28;2369;-58
2023/04/06 02:35:32;;;;;;;;;;;;;;;;;;1036264;28;3924;-57
2023/04/06 02:36:02;;;;;;;;;;;;;;;;;;1036634;28;2409;-58
2023/04/06 02:36:33;;;;;;;;;;;;;;;;;;1034229;28;3979;-55
2023/04/06 02:37:03;;;;;;;;;;;;;;;;;;1038241;28;2033;-57
2023/04/06 02:37:33;;;;;;;;;;;;;;;;;;1039125;28;3871;-56
2023/04/06 02:38:04;;;;;;;;;;;;;;;;;;1037997;28;1973;-56
2023/04/06 02:38:34;;;;;;;;;;;;;;;;;;1037399;28;4087;-56
2023/04/06 02:39:04;;;;;;;;;;;;;;;;;;1036186;28;2919;-55
2023/04/06 02:39:34;;;;;;;;;;;;;;;;;;1037912;28;4045;-55
2023/04/06 02:40:06;;;;;;;;;;;;;;;;;;1037672;28;2876;-56
2023/04/06 02:40:36;;;;;;;;;;;;;;;;;;1039210;28;3878;-55
2023/04/06 02:41:06;;;;;;;;;;;;;;;;;;1037808;28;2128;-56
2023/04/06 02:41:37;;;;;;;;;;;;;;;;;;1039333;28;4247;-57
2023/04/06 02:42:08;;;;;;;;;;;;;;;;;;1037665;28;3026;-55
2023/04/06 02:42:38;;;;;;;;;;;;;;;;;;1033824;28;4087;-52
2023/04/06 02:43:09;;;;;;;;;;;;;;;;;;1038338;28;2881;-59
2023/04/06 02:43:39;;;;;;;;;;;;;;;;;;1037435;28;4057;-58
2023/04/06 02:44:09;;;;;;;;;;;;;;;;;;1041204;28;3052;-55
2023/04/06 02:44:40;;;;;;;;;;;;;;;;;;1039469;28;4129;-60
2023/04/06 02:45:10;;;;;;;;;;;;;;;;;;1036728;28;3181;-56
2023/04/06 02:45:40;;;;;;;;;;;;;;;;;;1039493;28;3858;-58
2023/04/06 02:46:11;;;;;;;;;;;;;;;;;;1040078;28;1677;-56
2023/04/06 02:46:41;;;;;;;;;;;;;;;;;;1037025;28;3779;-59
2023/04/06 02:47:11;;;;;;;;;;;;;;;;;;1037553;28;1901;-60
2023/04/06 02:47:42;;;;;;;;;;;;;;;;;;1038905;28;4044;-58
2023/04/06 02:48:12;;;;;;;;;;;;;;;;;;1038232;28;2339;-58
2023/04/06 02:48:42;;;;;;;;;;;;;;;;;;1038759;28;3951;-56
2023/04/06 02:49:12;;;;;;;;;;;;;;;;;;1037375;28;2906;-57
2023/04/06 02:49:43;;;;;;;;;;;;;;;;;;1037817;28;4089;-55
2023/04/06 02:50:13;;;;;;;;;;;;;;;;;;1038665;28;2940;-58
2023/04/06 02:50:44;;;;;;;;;;;;;;;;;;1039139;28;3852;-55
2023/04/06 02:51:14;;;;;;;;;;;;;;;;;;1037269;28;2789;-60
2023/04/06 02:51:44;;;;;;;;;;;;;;;;;;1039046;28;4095;-57
2023/04/06 02:52:15;;;;;;;;;;;;;;;;;;1034897;28;2832;-60
2023/04/06 02:52:45;;;;;;;;;;;;;;;;;;1037193;28;3975;-59
2023/04/06 02:53:15;;;;;;;;;;;;;;;;;;1039708;28;1629;-57
2023/04/06 02:53:46;;;;;;;;;;;;;;;;;;1037378;28;4175;-58
2023/04/06 02:54:16;;;;;;;;;;;;;;;;;;1036416;28;3032;-57
2023/04/06 02:54:46;;;;;;;;;;;;;;;;;;1038675;28;4233;-58
2023/04/06 02:55:17;;;;;;;;;;;;;;;;;;1039394;28;1679;-60
2023/04/06 02:55:47;;;;;;;;;;;;;;;;;;1036926;28;4010;-60
2023/04/06 02:56:17;;;;;;;;;;;;;;;;;;1038358;28;3067;-55
2023/04/06 02:56:48;;;;;;;;;;;;;;;;;;1038713;28;3916;-56
2023/04/06 02:57:18;;;;;;;;;;;;;;;;;;1039742;28;1694;-54
2023/04/06 02:57:48;;;;;;;;;;;;;;;;;;1037782;28;3794;-58
2023/04/06 02:58:19;;;;;;;;;;;;;;;;;;1037911;28;2821;-56
2023/04/06 02:58:49;;;;;;;;;;;;;;;;;;1037597;28;3834;-58
2023/04/06 02:59:20;;;;;;;;;;;;;;;;;;1036949;28;3062;-58
2023/04/06 02:59:50;;;;;;;;;;;;;;;;;;1038356;28;4184;-56
2023/04/06 03:00:20;;;;;;;;;;;;;;;;;;1036132;28;3116;-61
2023/04/06 03:00:51;;;;;;;;;;;;;;;;;;1038502;28;4359;-60
2023/04/06 03:01:21;;;;;;;;;;;;;;;;;;1038305;28;2753;-55
2023/04/06 03:01:51;;;;;;;;;;;;;;;;;;1038543;28;3804;-55
2023/04/06 03:02:22;;;;;;;;;;;;;;;;;;1037142;28;2993;-58
2023/04/06 03:02:52;;;;;;;;;;;;;;;;;;1038569;28;3996;-56
2023/04/06 03:03:22;;;;;;;;;;;;;;;;;;1039477;28;2737;-57
2023/04/06 03:03:53;;;;;;;;;;;;;;;;;;1038781;28;3967;-60
2023/04/06 03:04:25;;;;;;;;;;;;;;;;;;1036676;28;2903;-57
2023/04/06 03:04:55;;;;;;;;;;;;;;;;;;1038174;28;3981;-59
2023/04/06 03:05:26;;;;;;;;;;;;;;;;;;1037861;28;3996;-55
2023/04/06 03:05:58;;;;;;;;;;;;;;;;;;1039560;28;1526;-60
2023/04/06 03:06:28;;;;;;;;;;;;;;;;;;1037116;28;3874;-57
2023/04/06 03:06:59;;;;;;;;;;;;;;;;;;1035361;28;1641;-55
2023/04/06 03:07:29;;;;;;;;;;;;;;;;;;1034494;28;4143;-55
2023/04/06 03:07:59;;;;;;;;;;;;;;;;;;1033976;28;2779;-58
2023/04/06 03:08:30;;;;;;;;;;;;;;;;;;1032758;28;3910;-59
2023/04/06 03:09:00;;;;;;;;;;;;;;;;;;1035398;28;1739;-59
2023/04/06 03:09:30;;;;;;;;;;;;;;;;;;1031140;28;4084;-58
2023/04/06 03:10:01;;;;;;;;;;;;;;;;;;1035212;28;2912;-58
2023/04/06 03:10:31;;;;;;;;;;;;;;;;;;1033939;28;4054;-55
2023/04/06 03:11:01;;;;;;;;;;;;;;;;;;1034829;28;2443;-57
2023/04/06 03:11:31;;;;;;;;;;;;;;;;;;1033370;28;4167;-57
2023/04/06 03:12:02;;;;;;;;;;;;;;;;;;1033454;28;3161;-59
2023/04/06 03:12:32;;;;;;;;;;;;;;;;;;1032680;28;3966;-57
2023/04/06 03:13:02;;;;;;;;;;;;;;;;;;1032688;28;2729;-57
2023/04/06 03:13:33;;;;;;;;;;;;;;;;;;1033745;28;3956;-58
2023/04/06 03:14:03;;;;;;;;;;;;;;;;;;1032686;28;2782;-60
2023/04/06 03:14:34;;;;;;;;;;;;;;;;;;1034170;28;3886;-57
2023/04/06 03:15:05;;;;;;;;;;;;;;;;;;1032170;28;2942;-58
2023/04/06 03:15:35;;;;;;;;;;;;;;;;;;1034318;28;3806;-56
2023/04/06 03:16:05;;;;;;;;;;;;;;;;;;1034245;28;1581;-57
2023/04/06 03:16:35;;;;;;;;;;;;;;;;;;1033701;28;4183;-55
2023/04/06 03:17:06;;;;;;;;;;;;;;;;;;1034202;28;2848;-58
2023/04/06 03:17:36;;;;;;;;;;;;;;;;;;1034407;28;4889;-58
2023/04/06 03:18:06;;;;;;;;;;;;;;;;;;1034640;28;1803;-56
2023/04/06 03:18:37;;;;;;;;;;;;;;;;;;1032214;28;4434;-61
2023/04/06 03:19:07;;;;;;;;;;;;;;;;;;1033879;28;2716;-56
2023/04/06 03:19:37;;;;;;;;;;;;;;;;;;1034709;28;4220;-57
2023/04/06 03:20:08;;;;;;;;;;;;;;;;;;1035719;28;1647;-61
2023/04/06 03:20:39;;;;;;;;;;;;;;;;;;1034703;28;3889;-60
2023/04/06 03:21:09;;;;;;;;;;;;;;;;;;1035457;28;1592;-56
2023/04/06 03:21:39;;;;;;;;;;;;;;;;;;1032191;28;4410;-60
2023/04/06 03:22:10;;;;;;;;;;;;;;;;;;1034521;28;2892;-56
2023/04/06 03:22:40;;;;;;;;;;;;;;;;;;1031819;28;3896;-57
2023/04/06 03:23:11;;;;;;;;;;;;;;;;;;1035451;28;2431;-58
2023/04/06 03:23:42;;;;;;;;;;;;;;;;;;1034858;28;4056;-59
2023/04/06 03:24:13;;;;;;;;;;;;;;;;;;1033027;28;2844;-59
2023/04/06 03:24:43;;;;;;;;;;;;;;;;;;1031291;28;3876;-54
2023/04/06 03:25:14;;;;;;;;;;;;;;;;;;1032192;28;3224;-56
2023/04/06 03:25:44;;;;;;;;;;;;;;;;;;1034717;28;4123;-58
2023/04/06 03:26:14;;;;;;;;;;;;;;;;;;1034788;28;1864;-58
2023/04/06 03:26:45;;;;;;;;;;;;;;;;;;1033646;28;3962;-59
2023/04/06 03:27:15;;;;;;;;;;;;;;;;;;1035303;28;1866;-56
2023/04/06 03:27:45;;;;;;;;;;;;;;;;;;1035185;28;3802;-54
2023/04/06 03:28:16;;;;;;;;;;;;;;;;;;1033513;28;2181;-58
2023/04/06 03:28:46;;;;;;;;;;;;;;;;;;1033571;28;3961;-60
2023/04/06 03:29:16;;;;;;;;;;;;;;;;;;1033203;28;2801;-57
2023/04/06 03:29:47;;;;;;;;;;;;;;;;;;1035236;28;3860;-56
2023/04/06 03:30:17;;;;;;;;;;;;;;;;;;1032652;28;2163;-57
2023/04/06 03:30:48;;;;;;;;;;;;;;;;;;1035184;28;3948;-58
2023/04/06 03:31:18;;;;;;;;;;;;;;;;;;1034256;28;2606;-57
2023/04/06 03:31:49;;;;;;;;;;;;;;;;;;1030876;28;3956;-57